»·PEaware :: UAL1913 KSNA-KLAS

UAL1913 :: KSNA-KLAS

FLIGHT INFORMATION

Flight Status: Arrived
Operator:
United Airlines
More flights by this operator :: More flights under this callsign
Pilot: Anonymous 25514 (25514)
Aircraft: AIRBUS A319
(A319)
More flights by this aircraft type
Origin: KSNA John Wayne-Orange Co
United States
Destination: KLAS McCarran Intl
United States
More flights between these airports :: More routes between these airports
Route: +FINZZ2 MISEN KEPEC6
File this flight plan on PilotEdge
Remarks:
Altitude:
(Current/Filed)
28,000ft
Speed:
(Current/Filed)
300kts
Departed: 17-Jul-19 09:43 AM
Arrived: 17-Jul-19 10:31 AM
Distance/Time
Traveled:
197nm/0:48
Distance/Time
To Go:
Arrived

Flight Plot

Page will automatically refresh every two minutes.

Flight plan parsing failed; only flown route is shown


Map Options




Map Legend


Flown Route
Filed Route
Departure Airport
Arrival Airport
Navaid (VOR, NDB)
Fix

Horizontal Profiles

Position Reports

Time Latitude Longitude Heading Altitude Ground
Speed
17-Jul-19 09:21 33.678986 -117.862529 117 65ft 0kts
17-Jul-19 09:22 33.678986 -117.862529 117 65ft 0kts
17-Jul-19 09:23 33.678986 -117.862529 117 65ft 0kts
17-Jul-19 09:24 33.678986 -117.862529 117 65ft 0kts
17-Jul-19 09:25 33.678986 -117.862529 117 65ft 0kts
17-Jul-19 09:26 33.678986 -117.862529 117 65ft 0kts
17-Jul-19 09:27 33.678986 -117.862529 117 65ft 0kts
17-Jul-19 09:28 33.678986 -117.862529 117 65ft 0kts
17-Jul-19 09:29 33.678986 -117.862529 117 65ft 0kts
17-Jul-19 09:30 33.678986 -117.862529 117 65ft 0kts
17-Jul-19 09:31 33.678986 -117.862529 117 65ft 0kts
17-Jul-19 09:32 33.678986 -117.862529 117 65ft 0kts
17-Jul-19 09:33 33.678986 -117.862529 117 65ft 0kts
17-Jul-19 09:34 33.678986 -117.862529 117 65ft 0kts
17-Jul-19 09:35 33.679097 -117.862812 100 65ft 2kts
17-Jul-19 09:36 33.678883 -117.863445 31 65ft 1kts
17-Jul-19 09:37 33.678805 -117.863495 26 65ft 0kts
17-Jul-19 09:38 33.678805 -117.863495 26 65ft 0kts
17-Jul-19 09:39 33.679270 -117.863215 26 65ft 7kts
17-Jul-19 09:40 33.680679 -117.863133 302 65ft 6kts
17-Jul-19 09:41 33.681106 -117.864086 297 65ft 0kts
17-Jul-19 09:42 33.661610 -117.877617 207 652ft 173kts
17-Jul-19 09:43 33.608784 -117.895926 184 3862ft 218kts
17-Jul-19 09:44 33.552953 -117.919385 224 4981ft 222kts
17-Jul-19 09:45 33.506196 -117.972861 225 6241ft 260kts
17-Jul-19 09:46 33.516860 -118.049746 312 9734ft 274kts
17-Jul-19 09:47 33.572575 -118.116338 330 12795ft 294kts
17-Jul-19 09:48 33.656009 -118.091666 26 14618ft 352kts
17-Jul-19 09:49 33.747264 -118.037514 25 17223ft 371kts
17-Jul-19 09:50 33.842630 -117.981780 24 19669ft 386kts
17-Jul-19 09:51 33.937354 -117.916415 36 21859ft 400kts
17-Jul-19 09:52 34.030186 -117.831204 36 22985ft 432kts
17-Jul-19 09:53 34.119424 -117.732870 49 24000ft 441kts
17-Jul-19 09:54 34.197995 -117.616456 50 25684ft 453kts
17-Jul-19 09:55 34.278534 -117.496463 50 27226ft 464kts
17-Jul-19 09:56 34.361388 -117.372810 49 28633ft 473kts
17-Jul-19 09:57 34.445690 -117.246050 50 29039ft 475kts
17-Jul-19 09:58 34.531513 -117.116859 50 29040ft 475kts
17-Jul-19 09:59 34.619480 -116.988111 49 29031ft 483kts
17-Jul-19 10:00 34.709493 -116.856855 49 29003ft 492kts
17-Jul-19 10:01 34.800182 -116.723859 49 28987ft 493kts
17-Jul-19 10:02 34.900144 -116.599300 37 28338ft 468kts
17-Jul-19 10:03 35.005408 -116.497967 36 26884ft 445kts
17-Jul-19 10:05 35.105174 -116.398975 40 23839ft 420kts
17-Jul-19 10:06 35.188630 -116.295934 45 22350ft 372kts
17-Jul-19 10:07 35.265742 -116.198885 45 21278ft 356kts
17-Jul-19 10:08 35.336116 -116.110283 45 19670ft 323kts
17-Jul-19 10:09 35.406546 -116.021407 45 17989ft 354kts
17-Jul-19 10:10 35.478929 -115.929794 46 16250ft 349kts
17-Jul-19 10:11 35.549727 -115.839932 46 14525ft 343kts
17-Jul-19 10:12 35.618730 -115.752119 47 13263ft 331kts
17-Jul-19 10:13 35.686406 -115.665741 47 13047ft 331kts
17-Jul-19 10:14 35.755218 -115.582187 28 13020ft 333kts
17-Jul-19 10:15 35.852174 -115.569907 359 13030ft 330kts
17-Jul-19 10:16 35.947553 -115.563947 10 12998ft 306kts
17-Jul-19 10:17 35.996895 -115.484402 73 11718ft 296kts
17-Jul-19 10:18 36.025968 -115.389968 75 11001ft 291kts
17-Jul-19 10:19 36.025032 -115.293765 99 10124ft 275kts
17-Jul-19 10:20 36.018088 -115.200218 99 9032ft 268kts
17-Jul-19 10:21 36.012041 -115.110229 99 8303ft 251kts
17-Jul-19 10:22 36.006742 -115.026077 99 7336ft 242kts
17-Jul-19 10:23 36.002230 -114.948764 100 6995ft 202kts
17-Jul-19 10:24 36.004583 -114.879177 65 7028ft 215kts
17-Jul-19 10:25 36.056653 -114.847752 2 5884ft 228kts
17-Jul-19 10:25 36.081224 -114.883031 258 5519ft 159kts
17-Jul-19 10:27 36.076788 -114.946809 265 5069ft 161kts
17-Jul-19 10:27 36.076520 -114.992515 262 3789ft 158kts
17-Jul-19 10:28 36.073989 -115.045936 264 3083ft 155kts
17-Jul-19 10:30 36.073672 -115.107326 266 2240ft 152kts
17-Jul-19 10:30 36.073648 -115.142665 279 2094ft 27kts
17-Jul-19 10:31 36.074711 -115.145882 304 2104ft 5kts
17-Jul-19 10:32 36.077764 -115.146890 324 2104ft 14kts
17-Jul-19 10:33 36.079533 -115.146678 22 2097ft 0kts
17-Jul-19 10:34 36.079533 -115.146678 22 2097ft 0kts

Navigation Log

Ident Type
Flight plan parsing failed, navigation log unavailable